createdAt,value
2019-03-22T00:01:15.256Z,78.40
2019-03-22T00:03:20.874Z,78.30
2019-03-22T00:05:26.409Z,78.50
2019-03-22T00:07:31.943Z,78.60
2019-03-22T00:09:37.609Z,78.60
2019-03-22T00:11:43.130Z,78.80
2019-03-22T00:13:48.665Z,78.90
2019-03-22T00:15:54.217Z,78.90
2019-03-22T00:18:00.576Z,79.20
2019-03-22T00:20:08.020Z,79.20
2019-03-22T00:22:14.533Z,79.10
2019-03-22T00:24:20.057Z,79.20
2019-03-22T00:26:25.584Z,79.40
2019-03-22T00:28:31.107Z,79.60
2019-03-22T00:30:36.635Z,79.70
2019-03-22T00:32:42.167Z,79.90
2019-03-22T00:34:47.755Z,80.10
2019-03-22T00:36:53.339Z,80.00
2019-03-22T00:38:58.856Z,80.20
2019-03-22T00:41:04.391Z,80.20
2019-03-22T00:43:09.911Z,80.40
2019-03-22T00:45:15.787Z,80.40
2019-03-22T00:47:21.313Z,80.90
2019-03-22T00:49:26.853Z,81.10
2019-03-22T00:51:32.415Z,81.70
2019-03-22T00:53:37.946Z,82.10
2019-03-22T00:55:43.480Z,82.30
2019-03-22T00:57:49.060Z,82.60
2019-03-22T00:59:54.643Z,82.70
2019-03-22T01:02:00.180Z,83.00
2019-03-22T01:04:05.799Z,83.30
2019-03-22T01:06:11.462Z,83.50
2019-03-22T01:08:17.063Z,83.70
2019-03-22T01:10:22.635Z,83.30
2019-03-22T01:12:28.171Z,83.00
2019-03-22T01:14:33.681Z,82.80
2019-03-22T01:16:39.215Z,82.60
2019-03-22T01:18:44.735Z,82.40
2019-03-22T01:20:50.260Z,82.10
2019-03-22T01:22:55.801Z,82.10
2019-03-22T01:25:01.321Z,81.80
2019-03-22T01:27:06.911Z,82.10
2019-03-22T01:29:12.448Z,81.90
2019-03-22T01:31:17.981Z,82.90
2019-03-22T01:33:23.501Z,81.90
2019-03-22T01:35:29.033Z,82.20
2019-03-22T01:37:34.556Z,82.00
2019-03-22T01:39:40.086Z,82.50
2019-03-22T01:41:45.620Z,82.50
2019-03-22T01:43:51.153Z,82.50
2019-03-22T01:45:56.666Z,82.30
2019-03-22T01:48:02.210Z,82.50
2019-03-22T01:50:10.731Z,82.90
2019-03-22T01:52:16.262Z,83.00
2019-03-22T01:54:21.796Z,83.50
2019-03-22T01:56:27.308Z,83.70
2019-03-22T01:58:32.828Z,83.70
2019-03-22T02:00:38.432Z,84.00
2019-03-22T02:02:43.959Z,84.40
2019-03-22T02:04:49.503Z,84.60
2019-03-22T02:06:55.041Z,84.70
2019-03-22T02:09:00.569Z,85.10
2019-03-22T02:11:07.796Z,85.20
2019-03-22T02:13:13.328Z,85.10
2019-03-22T02:15:18.839Z,85.20
2019-03-22T02:17:24.440Z,85.30
2019-03-22T02:19:29.973Z,85.30
2019-03-22T02:21:35.940Z,84.90
2019-03-22T02:23:42.468Z,84.50
2019-03-22T02:25:48.006Z,84.60
2019-03-22T02:28:03.789Z,84.90
2019-03-22T02:30:00.684Z,84.70
2019-03-22T02:32:06.203Z,84.80
2019-03-22T02:34:11.725Z,84.70
2019-03-22T02:36:17.253Z,84.50
2019-03-22T02:38:22.770Z,84.50
2019-03-22T02:40:28.296Z,84.50
2019-03-22T02:42:33.866Z,84.70
2019-03-22T02:44:39.417Z,84.50
2019-03-22T02:46:44.918Z,85.40
2019-03-22T02:48:50.459Z,84.10
2019-03-22T02:50:56.484Z,84.20
2019-03-22T02:53:02.222Z,84.20
2019-03-22T02:55:09.702Z,83.70
2019-03-22T02:57:15.226Z,84.00
2019-03-22T02:59:20.751Z,84.10
2019-03-22T03:01:26.289Z,85.90
2019-03-22T03:03:31.809Z,85.10
2019-03-22T03:05:37.336Z,85.40
2019-03-22T03:07:42.955Z,84.70
2019-03-22T03:09:48.464Z,84.80
2019-03-22T03:11:53.989Z,83.50
2019-03-22T03:13:59.518Z,83.30
2019-03-22T03:16:05.059Z,83.50
2019-03-22T03:18:10.592Z,83.20
2019-03-22T03:20:18.226Z,83.20
2019-03-22T03:22:23.728Z,83.50
2019-03-22T03:24:31.967Z,83.40
2019-03-22T03:26:37.490Z,83.50
2019-03-22T03:28:43.021Z,83.20
2019-03-22T03:30:48.588Z,83.70
2019-03-22T03:32:54.226Z,83.60
2019-03-22T03:34:59.745Z,83.70
2019-03-22T03:37:05.363Z,83.40
2019-03-22T03:39:10.897Z,83.50
2019-03-22T03:41:16.410Z,83.60
2019-03-22T03:43:21.941Z,83.40
2019-03-22T03:45:30.548Z,83.60
2019-03-22T03:47:36.065Z,83.60
2019-03-22T03:49:41.610Z,84.20
2019-03-22T03:51:47.124Z,84.30
2019-03-22T03:53:52.653Z,85.10
2019-03-22T03:55:58.202Z,85.50
2019-03-22T03:58:04.211Z,84.90
2019-03-22T04:00:10.064Z,86.30
2019-03-22T04:02:15.608Z,84.80
2019-03-22T04:04:21.132Z,85.30
2019-03-22T04:06:26.650Z,84.80
2019-03-22T04:08:32.319Z,84.40
2019-03-22T04:10:37.854Z,83.70
2019-03-22T04:12:43.357Z,84.10
2019-03-22T04:14:48.886Z,83.30
2019-03-22T04:16:54.415Z,83.40
2019-03-22T04:18:59.930Z,83.20
2019-03-22T04:21:05.466Z,83.20
2019-03-22T04:23:10.995Z,83.40
2019-03-22T04:25:17.618Z,83.40
2019-03-22T04:27:23.137Z,83.40
2019-03-22T04:29:28.651Z,83.60
2019-03-22T04:31:34.179Z,83.80
2019-03-22T04:33:39.727Z,84.10
2019-03-22T04:35:45.256Z,84.30
2019-03-22T04:37:50.786Z,84.30
2019-03-22T04:39:56.311Z,84.60
2019-03-22T04:42:01.833Z,84.60
2019-03-22T04:44:07.369Z,84.70
2019-03-22T04:46:14.140Z,84.70
2019-03-22T04:48:28.536Z,85.80
2019-03-22T04:50:34.806Z,85.30
2019-03-22T04:52:40.329Z,85.40
2019-03-22T04:54:48.758Z,85.20
2019-03-22T04:56:57.106Z,85.40
2019-03-22T04:59:05.357Z,85.30
2019-03-22T05:01:13.931Z,85.30
2019-03-22T05:03:20.696Z,85.50
2019-03-22T05:05:26.314Z,85.30
2019-03-22T05:07:31.976Z,85.20
2019-03-22T05:09:38.471Z,85.00
2019-03-22T05:11:46.151Z,84.70
2019-03-22T05:13:54.776Z,84.60
2019-03-22T05:16:00.750Z,84.30
2019-03-22T05:18:07.922Z,84.40
2019-03-22T05:20:15.083Z,84.30
2019-03-22T05:22:23.016Z,84.40
2019-03-22T05:24:30.412Z,84.30
2019-03-22T05:26:37.941Z,84.10
2019-03-22T05:28:43.796Z,84.10
2019-03-22T05:31:22.613Z,84.40
2019-03-22T05:33:28.206Z,84.20
2019-03-22T05:35:33.724Z,84.10
2019-03-22T05:37:39.268Z,84.40
2019-03-22T05:39:44.785Z,84.00
2019-03-22T05:41:50.314Z,84.00
2019-03-22T05:43:55.874Z,83.80
2019-03-22T05:46:01.380Z,83.60
2019-03-22T05:48:06.914Z,83.40
2019-03-22T05:50:12.477Z,83.40
2019-03-22T05:52:18.004Z,83.40
2019-03-22T05:54:23.524Z,82.90
2019-03-22T05:56:29.053Z,83.00
2019-03-22T05:58:34.662Z,82.80
2019-03-22T06:00:40.185Z,82.40
2019-03-22T06:02:45.724Z,82.40
2019-03-22T06:04:51.249Z,83.00
2019-03-22T06:06:56.914Z,82.90
2019-03-22T06:09:02.485Z,83.30
2019-03-22T06:11:08.008Z,82.70
2019-03-22T06:13:13.543Z,82.60
2019-03-22T06:15:19.088Z,80.70
2019-03-22T06:17:24.615Z,80.40
2019-03-22T06:19:30.141Z,80.40
2019-03-22T06:21:35.673Z,79.80
2019-03-22T06:23:41.200Z,78.60
2019-03-22T06:25:46.728Z,77.90
2019-03-22T06:27:52.276Z,76.90
2019-03-22T06:29:57.804Z,75.70
2019-03-22T06:32:03.479Z,74.30
2019-03-22T06:34:09.011Z,73.40
2019-03-22T06:36:14.549Z,73.70
2019-03-22T06:38:20.090Z,73.30
2019-03-22T06:40:25.665Z,73.50
2019-03-22T06:42:31.190Z,74.70
2019-03-22T06:44:36.713Z,75.30
2019-03-22T06:46:42.268Z,76.50
2019-03-22T06:48:47.792Z,77.20
2019-03-22T06:50:53.325Z,78.00
2019-03-22T06:52:58.889Z,78.60
2019-03-22T06:55:06.462Z,79.20
2019-03-22T06:57:11.985Z,80.10
2019-03-22T06:59:17.537Z,80.10
2019-03-22T07:01:23.060Z,81.00
2019-03-22T07:03:28.577Z,80.20
2019-03-22T07:05:34.116Z,80.00
2019-03-22T07:07:39.636Z,80.40
2019-03-22T07:09:45.794Z,80.50
2019-03-22T07:11:51.337Z,80.90
2019-03-22T07:13:56.868Z,81.20
2019-03-22T07:16:02.432Z,82.00
2019-03-22T07:18:07.971Z,81.20
2019-03-22T07:20:13.633Z,81.60
2019-03-22T07:22:19.170Z,82.00
2019-03-22T07:24:24.691Z,81.30
2019-03-22T07:26:30.406Z,81.00
2019-03-22T07:28:35.965Z,81.70
2019-03-22T07:30:41.488Z,81.50
2019-03-22T07:32:47.030Z,81.80
2019-03-22T07:34:52.544Z,81.80
2019-03-22T07:36:58.084Z,81.90
2019-03-22T07:39:05.471Z,82.10
2019-03-22T07:41:11.000Z,81.60
2019-03-22T07:43:16.543Z,82.00
2019-03-22T07:45:22.961Z,82.20
2019-03-22T07:47:28.505Z,83.40
2019-03-22T07:49:34.210Z,82.40
2019-03-22T07:51:39.737Z,83.00
2019-03-22T07:53:45.286Z,82.30
2019-03-22T07:55:50.807Z,82.30
2019-03-22T07:57:56.713Z,82.50
2019-03-22T08:00:02.344Z,82.20
2019-03-22T08:02:08.153Z,82.50
2019-03-22T08:04:13.700Z,82.50
2019-03-22T08:06:19.252Z,82.80
2019-03-22T08:08:24.789Z,82.40
2019-03-22T08:10:30.311Z,81.50
2019-03-22T08:12:36.210Z,81.90
2019-03-22T08:14:41.773Z,81.50
2019-03-22T08:16:47.430Z,81.20
2019-03-22T08:18:52.968Z,81.50
2019-03-22T08:20:58.676Z,81.80
2019-03-22T08:23:07.261Z,82.60
2019-03-22T08:25:12.783Z,82.80
2019-03-22T08:27:18.336Z,83.30
2019-03-22T08:29:23.870Z,83.20
2019-03-22T08:31:29.392Z,82.90
2019-03-22T08:33:34.982Z,82.80
2019-03-22T08:35:40.488Z,83.00
2019-03-22T08:37:52.524Z,83.20
2019-03-22T08:39:55.806Z,84.30
2019-03-22T08:42:00.405Z,83.70
2019-03-22T08:44:05.925Z,84.00
2019-03-22T08:46:11.464Z,84.70
2019-03-22T08:48:16.997Z,85.20
2019-03-22T08:50:22.531Z,85.30
2019-03-22T08:52:28.089Z,85.80
2019-03-22T08:54:33.620Z,86.20
2019-03-22T08:56:39.154Z,86.40
2019-03-22T08:58:44.721Z,86.60
2019-03-22T09:00:57.413Z,86.30
2019-03-22T09:02:57.349Z,87.10
2019-03-22T09:05:02.958Z,86.30
2019-03-22T09:07:08.511Z,86.60
2019-03-22T09:09:15.086Z,86.80
2019-03-22T09:11:20.642Z,86.40
2019-03-22T09:13:26.229Z,86.40
2019-03-22T09:15:41.173Z,86.20
2019-03-22T09:17:38.991Z,85.90
2019-03-22T09:19:44.501Z,85.40
2019-03-22T09:21:50.059Z,85.50
2019-03-22T09:23:55.587Z,85.80
2019-03-22T09:26:01.178Z,86.50
2019-03-22T09:28:06.782Z,85.70
2019-03-22T09:30:14.121Z,85.50
2019-03-22T09:32:19.615Z,85.20
2019-03-22T09:34:33.556Z,85.60
2019-03-22T09:36:32.346Z,86.10
2019-03-22T09:38:37.827Z,86.30
2019-03-22T09:40:43.379Z,86.20
2019-03-22T09:42:49.201Z,86.40
2019-03-22T09:44:54.795Z,86.60
2019-03-22T09:47:00.321Z,86.40
2019-03-22T09:49:05.853Z,87.20
2019-03-22T09:51:11.388Z,86.90
2019-03-22T09:53:16.920Z,86.70
2019-03-22T09:55:22.449Z,86.50
2019-03-22T09:57:27.994Z,85.90
2019-03-22T09:59:33.534Z,85.80
2019-03-22T10:01:39.073Z,84.40
2019-03-22T10:03:44.956Z,83.40
2019-03-22T10:05:50.493Z,82.70
2019-03-22T10:07:56.049Z,83.90
2019-03-22T10:10:01.565Z,82.50
2019-03-22T10:12:07.240Z,82.50
2019-03-22T10:14:12.705Z,83.20
2019-03-22T10:16:18.245Z,82.70
2019-03-22T10:18:23.808Z,82.50
2019-03-22T10:20:29.323Z,81.60
2019-03-22T10:22:34.908Z,81.90
2019-03-22T10:24:40.614Z,82.60
2019-03-22T10:26:46.109Z,82.10
2019-03-22T10:28:51.637Z,83.20
2019-03-22T10:30:57.244Z,82.20
2019-03-22T10:33:02.710Z,81.60
2019-03-22T10:35:08.518Z,82.40
2019-03-22T10:37:14.063Z,80.80
2019-03-22T10:39:19.622Z,80.50
2019-03-22T10:41:25.140Z,80.30
2019-03-22T10:43:32.588Z,79.20
2019-03-22T10:45:38.117Z,79.10
2019-03-22T10:47:43.657Z,79.20
2019-03-22T10:49:49.232Z,79.60
2019-03-22T10:51:57.248Z,79.50
2019-03-22T10:54:01.968Z,79.50
2019-03-22T10:56:07.481Z,79.30
2019-03-22T10:58:20.795Z,79.90
2019-03-22T11:00:20.530Z,80.80
2019-03-22T11:02:45.591Z,81.10
2019-03-22T11:04:51.237Z,81.70
2019-03-22T11:06:56.737Z,81.40
2019-03-22T11:09:02.268Z,81.50
2019-03-22T11:11:09.577Z,80.40
2019-03-22T11:13:15.104Z,81.00
2019-03-22T11:15:20.727Z,80.00
2019-03-22T11:17:26.268Z,79.80
2019-03-22T11:19:31.793Z,80.80
2019-03-22T11:21:37.330Z,82.00
2019-03-22T11:23:42.928Z,82.10
2019-03-22T11:25:48.461Z,82.30
2019-03-22T11:27:53.984Z,81.90
2019-03-22T11:29:59.535Z,81.90
2019-03-22T11:32:12.295Z,83.00
2019-03-22T11:34:12.453Z,82.30
2019-03-22T11:36:30.369Z,82.30
2019-03-22T11:38:35.891Z,83.10
2019-03-22T11:40:41.433Z,82.70
2019-03-22T11:42:47.143Z,82.30
2019-03-22T11:44:52.674Z,82.80
2019-03-22T11:46:58.273Z,83.50
2019-03-22T11:49:03.816Z,84.30
2019-03-22T11:51:09.409Z,84.00
2019-03-22T11:53:14.940Z,83.80
2019-03-22T11:55:20.474Z,84.50
2019-03-22T11:57:26.006Z,83.80
2019-03-22T11:59:31.555Z,83.70
2019-03-22T12:01:37.176Z,84.10
2019-03-22T12:03:42.711Z,84.60
2019-03-22T12:05:48.237Z,84.10
2019-03-22T12:07:53.800Z,83.70
2019-03-22T12:09:59.332Z,84.00
2019-03-22T12:12:05.001Z,82.90
2019-03-22T12:14:10.569Z,82.30
2019-03-22T12:16:16.104Z,82.30
2019-03-22T12:18:21.633Z,82.70
2019-03-22T12:20:27.198Z,81.70
2019-03-22T12:22:32.729Z,81.20
2019-03-22T12:24:38.266Z,81.00
2019-03-22T12:26:43.796Z,80.80
2019-03-22T12:28:49.329Z,81.20
2019-03-22T12:30:54.857Z,81.90
2019-03-22T12:33:00.405Z,80.60
2019-03-22T12:35:07.982Z,81.30
2019-03-22T12:37:13.509Z,81.80
2019-03-22T12:39:19.039Z,80.80
2019-03-22T12:41:24.569Z,82.00
2019-03-22T12:43:30.097Z,81.20
2019-03-22T12:45:35.802Z,81.10
2019-03-22T12:47:41.309Z,82.00
2019-03-22T12:49:46.837Z,82.10
2019-03-22T12:51:52.373Z,82.10
2019-03-22T12:53:57.897Z,80.40
2019-03-22T12:56:04.363Z,80.30
2019-03-22T12:58:09.922Z,80.60
2019-03-22T13:00:18.182Z,79.60
2019-03-22T13:02:23.781Z,80.90
2019-03-22T13:04:29.407Z,80.70
2019-03-22T13:06:34.933Z,79.80
2019-03-22T13:08:43.545Z,79.30
2019-03-22T13:10:49.144Z,78.90
2019-03-22T13:12:54.751Z,78.70
2019-03-22T13:15:00.327Z,79.10
2019-03-22T13:17:05.803Z,79.00
2019-03-22T13:19:11.348Z,79.20
2019-03-22T13:21:16.870Z,78.40
2019-03-22T13:23:23.473Z,78.60
2019-03-22T13:25:29.000Z,78.40
2019-03-22T13:27:34.523Z,79.00
2019-03-22T13:29:40.093Z,79.30
2019-03-22T13:31:46.769Z,79.60
2019-03-22T13:33:52.350Z,79.30
2019-03-22T13:35:57.899Z,79.20
2019-03-22T13:38:03.674Z,80.30
2019-03-22T13:40:09.458Z,79.90
2019-03-22T13:42:14.994Z,80.10
2019-03-22T13:44:20.511Z,80.60
2019-03-22T13:46:26.044Z,80.70
2019-03-22T13:48:31.581Z,80.70
2019-03-22T13:50:37.121Z,80.70
2019-03-22T13:52:42.652Z,80.60
2019-03-22T13:54:48.222Z,80.10
2019-03-22T13:56:53.747Z,79.50
2019-03-22T13:58:59.289Z,78.80
2019-03-22T14:01:04.931Z,78.90
2019-03-22T14:03:10.448Z,79.30
2019-03-22T14:05:16.068Z,80.00
2019-03-22T14:07:21.689Z,79.50
2019-03-22T14:09:27.320Z,78.70
2019-03-22T14:11:32.854Z,79.30
2019-03-22T14:13:39.808Z,79.30
2019-03-22T14:15:45.444Z,79.90
2019-03-22T14:17:51.038Z,79.60
2019-03-22T14:19:58.124Z,80.30
2019-03-22T14:22:04.428Z,80.10
2019-03-22T14:24:09.941Z,80.30
2019-03-22T14:26:15.472Z,80.60
2019-03-22T14:28:21.005Z,78.90
2019-03-22T14:30:26.540Z,79.40
2019-03-22T14:32:32.076Z,79.10
2019-03-22T14:34:37.617Z,78.70
2019-03-22T14:36:43.163Z,79.50
2019-03-22T14:38:48.700Z,80.10
2019-03-22T14:40:54.244Z,80.30
2019-03-22T14:42:59.784Z,80.70
2019-03-22T14:45:08.411Z,81.00
2019-03-22T14:47:13.940Z,81.40
2019-03-22T14:49:19.481Z,81.00
2019-03-22T14:51:25.028Z,81.30
2019-03-22T14:53:30.562Z,80.30
2019-03-22T14:55:36.188Z,81.00
2019-03-22T14:57:49.002Z,82.00
2019-03-22T14:59:58.356Z,81.20
2019-03-22T15:01:56.075Z,80.80
2019-03-22T15:04:01.613Z,80.30
2019-03-22T15:06:07.218Z,80.70
2019-03-22T15:08:12.745Z,81.00
2019-03-22T15:10:18.355Z,80.80
2019-03-22T15:12:23.884Z,80.80
2019-03-22T15:14:34.079Z,81.10
2019-03-22T15:16:41.261Z,81.30
2019-03-22T15:19:04.754Z,82.60
2019-03-22T15:21:14.598Z,81.60
2019-03-22T15:23:31.669Z,81.40
2019-03-22T15:25:56.869Z,81.60
2019-03-22T15:28:04.029Z,81.40
2019-03-22T15:30:28.749Z,81.40
2019-03-22T15:32:43.929Z,81.20
2019-03-22T15:35:07.235Z,81.10
2019-03-22T15:37:31.010Z,81.20
2019-03-22T15:39:38.333Z,81.60
2019-03-22T15:41:43.936Z,81.90
2019-03-22T15:43:49.552Z,81.90
2019-03-22T15:45:55.125Z,82.30
2019-03-22T15:48:00.730Z,82.30
2019-03-22T15:50:09.519Z,82.20
2019-03-22T15:52:15.046Z,82.00
2019-03-22T15:54:20.590Z,82.10
2019-03-22T15:56:26.141Z,82.00
2019-03-22T15:58:31.696Z,82.20
2019-03-22T16:00:37.224Z,82.10
2019-03-22T16:02:43.064Z,82.20
2019-03-22T16:04:48.602Z,82.50
2019-03-22T16:06:54.140Z,82.50
2019-03-22T16:08:59.690Z,82.70
2019-03-22T16:11:05.289Z,82.90
2019-03-22T16:13:10.834Z,83.10
2019-03-22T16:15:16.580Z,83.30
2019-03-22T16:17:22.055Z,83.10
2019-03-22T16:19:27.593Z,83.10
2019-03-22T16:21:33.134Z,83.10
2019-03-22T16:23:38.665Z,83.10
2019-03-22T16:25:44.188Z,82.90
2019-03-22T16:27:50.996Z,83.20
2019-03-22T16:29:56.523Z,82.80
2019-03-22T16:32:02.051Z,83.10
2019-03-22T16:34:07.581Z,83.10
2019-03-22T16:36:13.106Z,83.40
2019-03-22T16:38:18.623Z,83.60
2019-03-22T16:40:24.673Z,83.90
2019-03-22T16:42:30.364Z,84.10
2019-03-22T16:44:35.896Z,84.30
2019-03-22T16:46:41.473Z,84.50
2019-03-22T16:48:48.072Z,84.60
2019-03-22T16:50:53.611Z,84.60
2019-03-22T16:52:59.230Z,85.20
2019-03-22T16:55:06.506Z,84.30
2019-03-22T16:57:12.044Z,84.30
2019-03-22T16:59:17.586Z,84.50
2019-03-22T17:01:23.123Z,84.70
2019-03-22T17:03:28.652Z,85.00
2019-03-22T17:05:34.210Z,85.10
2019-03-22T17:07:39.737Z,85.00
2019-03-22T17:09:45.277Z,85.20
2019-03-22T17:11:50.821Z,85.10
2019-03-22T17:13:56.336Z,85.20
2019-03-22T17:16:02.080Z,85.20
2019-03-22T17:18:07.736Z,85.20
2019-03-22T17:20:13.533Z,84.80
2019-03-22T17:22:19.069Z,84.90
2019-03-22T17:24:24.608Z,85.00
2019-03-22T17:26:30.218Z,85.40
2019-03-22T17:28:35.744Z,85.00
2019-03-22T17:30:41.284Z,84.80
2019-03-22T17:32:46.814Z,84.70
2019-03-22T17:34:52.401Z,85.00
2019-03-22T17:36:57.963Z,84.80
2019-03-22T17:39:05.024Z,84.60
2019-03-22T17:41:10.625Z,84.60
2019-03-22T17:43:16.238Z,84.90
2019-03-22T17:45:21.902Z,84.80
2019-03-22T17:47:27.442Z,84.70
2019-03-22T17:49:33.077Z,84.40
2019-03-22T17:51:39.286Z,84.60
2019-03-22T17:53:44.821Z,84.70
2019-03-22T17:55:50.372Z,84.90
2019-03-22T17:57:55.898Z,84.80
2019-03-22T18:00:01.430Z,84.90
2019-03-22T18:02:07.196Z,85.00
2019-03-22T18:04:12.719Z,85.10
2019-03-22T18:06:18.256Z,85.40
2019-03-22T18:08:23.801Z,85.40
2019-03-22T18:10:29.426Z,85.40
2019-03-22T18:12:34.956Z,85.00
2019-03-22T18:14:40.483Z,84.70
2019-03-22T18:16:46.034Z,85.10
2019-03-22T18:18:51.637Z,85.40
2019-03-22T18:20:57.176Z,85.70
2019-03-22T18:23:02.752Z,85.80
2019-03-22T18:25:10.431Z,85.80
2019-03-22T18:27:16.034Z,86.00
2019-03-22T18:29:21.605Z,86.10
2019-03-22T18:31:27.140Z,86.20
2019-03-22T18:33:32.687Z,86.80
2019-03-22T18:35:38.251Z,86.00
2019-03-22T18:37:43.791Z,86.00
2019-03-22T18:39:49.628Z,86.00
2019-03-22T18:41:55.181Z,85.70
2019-03-22T18:44:00.787Z,85.80
2019-03-22T18:46:06.338Z,85.60
2019-03-22T18:48:11.921Z,85.60
2019-03-22T18:50:17.532Z,85.30
2019-03-22T18:52:23.089Z,86.10
2019-03-22T18:54:28.648Z,85.60
2019-03-22T18:56:34.198Z,85.30
2019-03-22T18:58:39.737Z,85.00
2019-03-22T19:00:45.287Z,84.70
2019-03-22T19:02:50.842Z,84.80
2019-03-22T19:04:56.386Z,85.50
2019-03-22T19:07:01.956Z,85.20
2019-03-22T19:09:08.615Z,85.70
2019-03-22T19:11:14.342Z,86.00
2019-03-22T19:13:19.872Z,85.80
2019-03-22T19:15:25.410Z,86.00
2019-03-22T19:17:30.941Z,86.40
2019-03-22T19:19:36.512Z,86.50
2019-03-22T19:21:42.119Z,85.90
2019-03-22T19:23:47.653Z,85.90
2019-03-22T19:26:06.088Z,86.10
2019-03-22T19:28:11.640Z,86.40
2019-03-22T19:30:18.334Z,86.80
2019-03-22T19:32:23.909Z,87.50
2019-03-22T19:34:29.441Z,87.70
2019-03-22T19:36:34.973Z,88.00
2019-03-22T19:38:40.549Z,89.10
2019-03-22T19:40:46.102Z,89.00
2019-03-22T19:42:51.652Z,89.00
2019-03-22T19:44:57.202Z,89.40
2019-03-22T19:47:02.748Z,89.30
2019-03-22T19:49:08.303Z,89.70
2019-03-22T19:51:13.874Z,90.00
2019-03-22T19:53:19.432Z,89.60
2019-03-22T19:55:24.979Z,90.00
2019-03-22T19:57:30.600Z,90.00
2019-03-22T19:59:36.213Z,89.40
2019-03-22T20:01:42.839Z,88.60
2019-03-22T20:03:48.384Z,88.70
2019-03-22T20:05:53.970Z,88.80
2019-03-22T20:07:59.803Z,89.00
2019-03-22T20:10:08.729Z,89.20
2019-03-22T20:12:14.309Z,89.70
2019-03-22T20:14:19.841Z,89.40
2019-03-22T20:16:25.383Z,89.50
2019-03-22T20:18:30.928Z,89.90
2019-03-22T20:20:36.465Z,90.10
2019-03-22T20:22:42.011Z,89.80
2019-03-22T20:24:47.545Z,89.30
2019-03-22T20:26:53.092Z,89.50
2019-03-22T20:28:58.689Z,90.00
2019-03-22T20:31:04.310Z,90.00
2019-03-22T20:33:09.984Z,90.00
2019-03-22T20:35:17.037Z,89.80
2019-03-22T20:37:22.820Z,89.50
2019-03-22T20:39:28.358Z,89.90
2019-03-22T20:41:33.903Z,90.10
2019-03-22T20:43:39.454Z,89.70
2019-03-22T20:45:44.995Z,90.10
2019-03-22T20:47:50.563Z,90.10
2019-03-22T20:49:56.103Z,90.10
2019-03-22T20:52:01.648Z,89.70
2019-03-22T20:54:07.298Z,89.60
2019-03-22T20:56:12.857Z,89.50
2019-03-22T20:58:18.410Z,89.40
2019-03-22T21:00:23.958Z,89.40
2019-03-22T21:02:29.498Z,89.40
2019-03-22T21:04:35.096Z,89.60
2019-03-22T21:06:40.663Z,89.60
2019-03-22T21:08:46.211Z,90.00
2019-03-22T21:10:51.757Z,90.30
2019-03-22T21:12:57.486Z,90.40
2019-03-22T21:15:03.917Z,90.50
2019-03-22T21:17:09.603Z,90.30
2019-03-22T21:19:15.487Z,90.20
2019-03-22T21:21:21.042Z,90.20
2019-03-22T21:23:35.892Z,89.80
2019-03-22T21:25:33.749Z,89.30
2019-03-22T21:27:39.299Z,90.00
2019-03-22T21:29:44.827Z,90.00
2019-03-22T21:31:50.372Z,90.10
2019-03-22T21:33:56.010Z,90.10
2019-03-22T21:36:01.538Z,90.20
2019-03-22T21:38:11.088Z,90.20
2019-03-22T21:40:14.387Z,90.60
2019-03-22T21:42:19.917Z,91.30
2019-03-22T21:44:25.490Z,90.90
2019-03-22T21:46:31.019Z,90.90
2019-03-22T21:48:36.572Z,90.80
2019-03-22T21:50:42.105Z,90.80
2019-03-22T21:52:47.658Z,91.00
2019-03-22T21:54:53.203Z,91.10
2019-03-22T21:56:58.745Z,91.10
2019-03-22T21:59:04.382Z,91.10
2019-03-22T22:01:09.928Z,90.90
2019-03-22T22:03:15.468Z,90.90
2019-03-22T22:05:21.032Z,91.10
2019-03-22T22:07:26.572Z,91.00
2019-03-22T22:09:32.117Z,90.80
2019-03-22T22:11:37.647Z,90.70
2019-03-22T22:13:43.225Z,90.60
2019-03-22T22:15:48.765Z,90.70
2019-03-22T22:17:54.308Z,90.80
2019-03-22T22:19:59.863Z,90.50
2019-03-22T22:22:05.402Z,90.50
2019-03-22T22:24:11.035Z,90.50
2019-03-22T22:26:16.565Z,90.40
2019-03-22T22:28:22.118Z,90.50
2019-03-22T22:30:27.676Z,90.50
2019-03-22T22:32:33.221Z,90.90
2019-03-22T22:34:39.648Z,91.00
2019-03-22T22:36:48.278Z,91.10
2019-03-22T22:38:53.808Z,91.10
2019-03-22T22:40:59.362Z,90.90
2019-03-22T22:43:06.044Z,90.70
2019-03-22T22:45:12.117Z,90.60
2019-03-22T22:47:17.668Z,90.50
2019-03-22T22:49:23.209Z,90.50
2019-03-22T22:51:28.754Z,90.40
2019-03-22T22:53:34.343Z,90.20
2019-03-22T22:55:39.890Z,90.60
2019-03-22T22:57:45.427Z,90.30
2019-03-22T22:59:50.981Z,89.80
2019-03-22T23:01:56.618Z,89.70
2019-03-22T23:04:02.224Z,89.90
2019-03-22T23:06:09.711Z,90.00
2019-03-22T23:08:15.013Z,90.30
2019-03-22T23:10:20.539Z,90.10
2019-03-22T23:12:44.395Z,90.40
2019-03-22T23:14:49.925Z,90.10
2019-03-22T23:16:55.459Z,90.20
2019-03-22T23:19:01.107Z,89.90
2019-03-22T23:21:06.642Z,90.30
2019-03-22T23:23:12.185Z,90.30
2019-03-22T23:25:17.750Z,90.50
2019-03-22T23:27:23.286Z,90.30
2019-03-22T23:29:28.829Z,90.00
2019-03-22T23:31:52.594Z,90.50
2019-03-22T23:33:58.202Z,90.70
2019-03-22T23:36:03.916Z,90.60
2019-03-22T23:38:09.457Z,90.20
2019-03-22T23:40:15.217Z,90.30
2019-03-22T23:42:20.853Z,90.30
2019-03-22T23:44:39.680Z,90.30
2019-03-22T23:46:45.247Z,90.80
2019-03-22T23:48:50.797Z,91.00
2019-03-22T23:50:56.362Z,90.80
2019-03-22T23:53:01.886Z,90.90
2019-03-22T23:55:07.571Z,91.00
2019-03-22T23:57:13.114Z,91.00
2019-03-22T23:59:18.657Z,91.20
